createdAt,value
2022-10-11T00:01:20.023Z,100035.97
2022-10-11T00:03:46.602Z,99908.44
2022-10-11T00:06:13.165Z,100033.66
2022-10-11T00:08:39.656Z,100035.34
2022-10-11T00:11:07.142Z,100035.44
2022-10-11T00:13:34.131Z,99915.97
2022-10-11T00:16:01.230Z,99995.69
2022-10-11T00:18:28.123Z,100055.00
2022-10-11T00:21:05.810Z,100051.00
2022-10-11T00:23:33.339Z,99963.75
2022-10-11T00:26:02.158Z,100033.50
2022-10-11T00:28:29.110Z,99960.19
2022-10-11T00:30:55.723Z,100053.66
2022-10-11T00:33:22.275Z,99991.59
2022-10-11T00:35:49.235Z,99653.19
2022-10-11T00:38:16.344Z,100019.00
2022-10-11T00:40:43.249Z,100020.09
2022-10-11T00:43:31.076Z,99985.75
2022-10-11T00:45:57.552Z,100020.72
2022-10-11T00:48:38.240Z,100015.63
2022-10-11T00:51:10.381Z,100020.66
2022-10-11T00:53:47.885Z,99923.88
2022-10-11T00:56:20.763Z,100016.63
2022-10-11T00:58:47.948Z,99868.16
2022-10-11T01:01:14.579Z,100019.59
2022-10-11T01:03:41.958Z,100015.28
2022-10-11T01:06:09.195Z,99984.38
2022-10-11T01:08:36.645Z,99731.47
2022-10-11T01:11:03.499Z,99752.31
2022-10-11T01:13:41.181Z,99973.00
2022-10-11T01:16:26.306Z,100005.72
2022-10-11T01:19:20.766Z,100002.22
2022-10-11T01:21:57.568Z,100003.91
2022-10-11T01:25:04.383Z,100067.56
2022-10-11T01:27:36.890Z,99995.16
2022-10-11T01:30:21.354Z,99966.88
2022-10-11T01:32:57.612Z,99991.91
2022-10-11T01:35:35.547Z,99790.97
2022-10-11T01:38:13.944Z,99985.38
2022-10-11T01:40:54.197Z,99984.47
2022-10-11T01:43:23.833Z,99707.31
2022-10-11T01:45:52.532Z,99976.81
2022-10-11T01:48:19.351Z,99980.28
2022-10-11T01:50:51.252Z,99971.75
2022-10-11T01:53:29.823Z,99972.44
2022-10-11T01:56:11.414Z,99966.44
2022-10-11T01:59:03.029Z,99969.88
2022-10-11T02:01:51.342Z,99960.44
2022-10-11T02:04:26.185Z,99790.66
2022-10-11T02:06:58.497Z,99958.72
2022-10-11T02:09:43.603Z,99898.41
2022-10-11T02:12:13.124Z,100007.66
2022-10-11T02:14:44.383Z,99898.41
2022-10-11T02:17:15.727Z,99852.72
2022-10-11T02:19:47.436Z,99820.13
2022-10-11T02:22:32.932Z,99948.00
2022-10-11T02:25:04.876Z,99945.41
2022-10-11T02:27:34.328Z,99946.22
2022-10-11T02:30:03.327Z,99968.59
2022-10-11T02:32:32.287Z,99784.16
2022-10-11T02:35:01.453Z,99825.47
2022-10-11T02:37:36.489Z,99972.38
2022-10-11T02:40:27.570Z,99772.19
2022-10-11T02:43:03.455Z,99984.84
2022-10-11T02:45:41.962Z,99936.75
2022-10-11T02:48:11.036Z,99985.75
2022-10-11T02:50:39.820Z,99813.16
2022-10-11T02:53:07.012Z,99938.66
2022-10-11T02:55:33.544Z,99688.16
2022-10-11T02:58:00.131Z,99885.53
2022-10-11T03:00:26.716Z,99767.56
2022-10-11T03:02:53.187Z,99979.53
2022-10-11T03:05:20.027Z,99795.50
2022-10-11T03:07:46.518Z,99927.28
2022-10-11T03:10:13.095Z,99933.38
2022-10-11T03:12:39.569Z,99934.44
2022-10-11T03:15:06.536Z,99930.22
2022-10-11T03:17:37.271Z,99893.22
2022-10-11T03:20:06.146Z,99925.81
2022-10-11T03:22:32.880Z,99940.28
2022-10-11T03:25:03.560Z,99917.25
2022-10-11T03:27:31.275Z,99912.03
2022-10-11T03:29:57.930Z,99722.53
2022-10-11T03:32:24.588Z,99898.53
2022-10-11T03:34:51.101Z,99912.56
2022-10-11T03:37:18.215Z,99912.28
2022-10-11T03:39:45.758Z,99868.38
2022-10-11T03:42:13.241Z,99905.28
2022-10-11T03:44:39.893Z,99899.31
2022-10-11T03:47:06.434Z,99556.16
2022-10-11T03:49:32.925Z,99898.84
2022-10-11T03:51:59.463Z,99919.56
2022-10-11T03:54:26.372Z,99787.16
2022-10-11T03:56:53.091Z,99824.31
2022-10-11T03:59:19.602Z,99739.44
2022-10-11T04:01:46.146Z,99911.94
2022-10-11T04:04:12.741Z,99870.16
2022-10-11T04:06:39.216Z,99889.53
2022-10-11T04:09:05.717Z,99689.81
2022-10-11T04:11:32.712Z,99890.53
2022-10-11T04:13:59.408Z,99900.97
2022-10-11T04:16:25.948Z,99834.31
2022-10-11T04:18:52.514Z,99885.50
2022-10-11T04:21:19.005Z,99845.19
2022-10-11T04:23:45.497Z,99504.69
2022-10-11T04:26:12.151Z,99928.56
2022-10-11T04:28:38.770Z,99800.72
2022-10-11T04:31:06.612Z,99759.38
2022-10-11T04:33:33.293Z,99789.75
2022-10-11T04:35:59.854Z,99860.59
2022-10-11T04:38:26.391Z,99743.22
2022-10-11T04:40:52.918Z,99812.13
2022-10-11T04:43:19.574Z,99849.78
2022-10-11T04:45:46.224Z,99726.72
2022-10-11T04:48:13.975Z,99882.19
2022-10-11T04:50:40.654Z,99886.50
2022-10-11T04:53:07.499Z,99892.38
2022-10-11T04:55:33.961Z,99689.81
2022-10-11T04:58:02.098Z,99890.31
2022-10-11T05:00:29.186Z,99892.28
2022-10-11T05:02:55.967Z,99885.34
2022-10-11T05:05:22.436Z,99879.13
2022-10-11T05:07:48.934Z,99877.22
2022-10-11T05:10:15.616Z,99856.94
2022-10-11T05:12:42.164Z,99756.34
2022-10-11T05:15:09.284Z,99829.78
2022-10-11T05:17:36.296Z,99798.81
2022-10-11T05:20:03.379Z,99855.19
2022-10-11T05:22:29.965Z,99857.66
2022-10-11T05:24:56.856Z,99770.06
2022-10-11T05:27:23.363Z,99792.38
2022-10-11T05:29:50.010Z,99691.53
2022-10-11T05:32:16.518Z,99716.38
2022-10-11T05:34:43.048Z,99837.34
2022-10-11T05:37:09.629Z,99697.50
2022-10-11T05:39:36.139Z,99633.50
2022-10-11T05:42:05.522Z,99799.72
2022-10-11T05:44:35.591Z,99658.38
2022-10-11T05:47:02.085Z,99760.09
2022-10-11T05:49:28.799Z,99819.63
2022-10-11T05:51:55.429Z,99825.09
2022-10-11T05:54:22.438Z,99785.03
2022-10-11T05:56:48.949Z,99836.56
2022-10-11T05:59:15.571Z,99527.47
2022-10-11T06:01:42.178Z,99799.34
2022-10-11T06:04:09.119Z,99814.19
2022-10-11T06:06:35.600Z,99825.94
2022-10-11T06:09:02.239Z,99783.97
2022-10-11T06:11:28.990Z,99740.84
2022-10-11T06:13:58.102Z,99830.56
2022-10-11T06:16:25.844Z,99742.00
2022-10-11T06:18:57.080Z,99685.16
2022-10-11T06:21:24.438Z,99829.22
2022-10-11T06:23:58.314Z,99688.91
2022-10-11T06:26:26.644Z,99823.03
2022-10-11T06:28:53.328Z,99791.81
2022-10-11T06:31:19.871Z,99793.06
2022-10-11T06:33:46.416Z,99772.53
2022-10-11T06:36:14.988Z,99793.38
2022-10-11T06:38:44.977Z,99672.16
2022-10-11T06:41:16.074Z,99867.94
2022-10-11T06:43:42.754Z,99761.63
2022-10-11T06:46:09.863Z,99818.84
2022-10-11T06:48:40.411Z,99810.59
2022-10-11T06:51:06.943Z,99786.72
2022-10-11T06:53:33.506Z,99814.22
2022-10-11T06:56:05.248Z,99819.09
2022-10-11T06:58:32.182Z,99734.47
2022-10-11T07:01:07.233Z,99709.75
2022-10-11T07:03:34.515Z,99841.97
2022-10-11T07:06:03.129Z,99768.66
2022-10-11T07:08:30.347Z,99779.56
2022-10-11T07:11:11.603Z,99803.66
2022-10-11T07:13:39.349Z,99742.47
2022-10-11T07:16:11.884Z,99734.03
2022-10-11T07:18:39.299Z,99731.19
2022-10-11T07:21:08.882Z,99789.25
2022-10-11T07:23:35.507Z,99793.41
2022-10-11T07:26:03.042Z,99749.16
2022-10-11T07:28:30.671Z,99693.75
2022-10-11T07:30:58.014Z,99782.66
2022-10-11T07:33:24.963Z,99744.72
2022-10-11T07:35:51.457Z,99779.28
2022-10-11T07:38:18.140Z,99710.69
2022-10-11T07:40:46.265Z,99733.44
2022-10-11T07:43:13.958Z,99742.06
2022-10-11T07:45:42.788Z,99719.88
2022-10-11T07:48:09.361Z,99785.88
2022-10-11T07:50:36.055Z,99773.69
2022-10-11T07:53:03.074Z,99668.56
2022-10-11T07:55:31.335Z,99780.72
2022-10-11T07:57:58.131Z,99783.53
2022-10-11T08:00:24.705Z,99796.59
2022-10-11T08:02:51.195Z,99780.00
2022-10-11T08:05:17.904Z,99759.88
2022-10-11T08:07:44.515Z,99773.44
2022-10-11T08:10:11.272Z,99737.88
2022-10-11T08:12:37.900Z,99756.09
2022-10-11T08:15:05.363Z,99509.69
2022-10-11T08:17:31.979Z,99761.06
2022-10-11T08:19:58.613Z,99751.16
2022-10-11T08:22:27.995Z,99687.16
2022-10-11T08:24:54.503Z,99621.84
2022-10-11T08:27:20.990Z,99779.00
2022-10-11T08:29:47.524Z,99595.63
2022-10-11T08:32:14.098Z,99581.13
2022-10-11T08:34:40.585Z,99731.19
2022-10-11T08:37:07.168Z,99724.16
2022-10-11T08:39:34.871Z,99727.53
2022-10-11T08:42:04.551Z,99727.22
2022-10-11T08:47:33.808Z,99693.47
2022-10-11T08:50:01.072Z,99741.66
2022-10-11T08:52:35.290Z,99640.25
2022-10-11T08:55:08.186Z,99743.69
2022-10-11T08:57:38.507Z,99709.97
2022-10-11T09:00:08.859Z,99706.19
2022-10-11T09:03:07.647Z,99739.81
2022-10-11T09:05:49.381Z,99714.19
2022-10-11T09:08:37.318Z,99729.84
2022-10-11T09:11:25.301Z,99655.97
2022-10-11T09:14:13.104Z,99689.81
2022-10-11T09:16:58.343Z,99687.63
2022-10-11T09:20:12.199Z,99715.25
2022-10-11T09:22:44.801Z,99682.19
2022-10-11T09:25:33.175Z,99680.50
2022-10-11T09:28:36.488Z,99536.53
2022-10-11T09:31:03.338Z,99679.34
2022-10-11T09:33:46.892Z,99684.81
2022-10-11T09:36:16.459Z,99674.03
2022-10-11T09:39:06.331Z,99670.47
2022-10-11T09:41:45.671Z,99665.81
2022-10-11T09:44:22.968Z,99692.28
2022-10-11T09:46:50.935Z,99642.72
2022-10-11T09:49:21.774Z,99502.69
2022-10-11T09:51:56.673Z,99641.88
2022-10-11T09:54:44.890Z,99638.53
2022-10-11T09:57:22.125Z,99648.06
2022-10-11T10:00:20.831Z,99643.22
2022-10-11T10:02:48.950Z,99633.53
2022-10-11T10:05:23.222Z,99636.16
2022-10-11T10:08:08.941Z,99666.09
2022-10-11T10:10:38.708Z,99556.81
2022-10-11T10:13:18.206Z,99641.63
2022-10-11T10:15:48.109Z,99512.38
2022-10-11T10:18:22.805Z,99654.59
2022-10-11T10:20:55.552Z,99646.59
2022-10-11T10:23:30.005Z,99644.16
2022-10-11T10:26:35.385Z,99642.81
2022-10-11T10:29:17.115Z,99675.13
2022-10-11T10:34:55.013Z,99661.50
2022-10-11T10:37:37.912Z,99638.28
2022-10-11T10:40:22.775Z,99571.75
2022-10-11T10:42:51.402Z,99647.03
2022-10-11T10:45:21.423Z,99364.69
2022-10-11T10:48:03.815Z,99642.31
2022-10-11T10:50:59.601Z,99628.13
2022-10-11T10:53:37.494Z,99625.00
2022-10-11T10:56:10.264Z,99623.00
2022-10-11T10:59:02.727Z,99624.72
2022-10-11T11:01:33.052Z,99558.84
2022-10-11T11:04:06.599Z,99613.69
2022-10-11T11:06:50.995Z,99553.84
2022-10-11T11:09:20.140Z,99629.28
2022-10-11T11:11:57.331Z,99582.84
2022-10-11T11:14:44.787Z,99596.75
2022-10-11T11:17:20.707Z,99606.22
2022-10-11T11:20:03.099Z,99584.88
2022-10-11T11:22:54.767Z,99574.34
2022-10-11T11:25:53.372Z,99572.47
2022-10-11T11:28:41.649Z,99573.38
2022-10-11T11:31:15.789Z,99618.56
2022-10-11T11:33:59.245Z,99564.44
2022-10-11T11:36:41.502Z,99563.09
2022-10-11T11:39:16.795Z,99562.94
2022-10-11T11:42:01.198Z,99560.41
2022-10-11T11:44:42.462Z,99426.34
2022-10-11T11:47:26.735Z,99533.59
2022-10-11T11:50:20.804Z,99567.16
2022-10-11T11:52:51.651Z,99561.56
2022-10-11T11:55:28.474Z,99559.44
2022-10-11T11:58:17.768Z,99586.13
2022-10-11T12:01:01.565Z,99469.28
2022-10-11T12:03:34.435Z,99429.47
2022-10-11T12:06:12.536Z,99560.91
2022-10-11T12:08:42.012Z,99549.50
2022-10-11T12:11:20.356Z,99564.28
2022-10-11T12:13:50.832Z,99267.69
2022-10-11T12:16:18.680Z,99532.22
2022-10-11T12:18:57.420Z,99557.72
2022-10-11T12:21:34.542Z,99550.25
2022-10-11T12:24:09.744Z,99550.59
2022-10-11T12:27:01.393Z,99544.69
2022-10-11T12:29:49.728Z,99444.63
2022-10-11T12:32:28.446Z,99553.56
2022-10-11T12:35:32.288Z,99563.53
2022-10-11T12:38:13.164Z,99496.19
2022-10-11T12:40:42.109Z,99561.97
2022-10-11T12:43:30.237Z,99530.94
2022-10-11T12:45:56.836Z,99425.31
2022-10-11T12:48:42.309Z,99601.00
2022-10-11T12:51:28.000Z,99593.19
2022-10-11T12:54:26.760Z,99567.75
2022-10-11T12:57:15.980Z,99564.66
2022-10-11T12:59:46.679Z,99471.16
2022-10-11T13:02:40.724Z,99330.41
2022-10-11T13:05:21.678Z,99558.97
2022-10-11T13:07:49.384Z,99482.38
2022-10-11T13:10:24.193Z,99591.09
2022-10-11T13:12:52.042Z,99564.97
2022-10-11T13:15:21.896Z,99566.91
2022-10-11T13:17:54.207Z,99585.78
2022-10-11T13:20:25.392Z,99503.19
2022-10-11T13:22:54.834Z,99442.91
2022-10-11T13:25:27.981Z,99331.50
2022-10-11T13:27:57.741Z,99571.97
2022-10-11T13:30:34.186Z,99611.56
2022-10-11T13:33:05.558Z,99510.56
2022-10-11T13:35:35.312Z,99469.84
2022-10-11T13:38:03.446Z,99564.88
2022-10-11T13:40:31.641Z,99296.25
2022-10-11T13:42:58.603Z,99524.38
2022-10-11T13:45:27.778Z,99490.75
2022-10-11T13:47:55.341Z,99458.13
2022-10-11T13:50:35.262Z,99531.47
2022-10-11T13:53:23.363Z,99526.94
2022-10-11T13:55:59.309Z,99483.69
2022-10-11T13:58:40.489Z,99515.34
2022-10-11T14:01:34.942Z,99478.88
2022-10-11T14:04:08.815Z,99555.38
2022-10-11T14:06:58.445Z,99545.97
2022-10-11T14:09:33.698Z,99555.25
2022-10-11T14:12:28.292Z,99555.97
2022-10-11T14:14:54.842Z,99557.56
2022-10-11T14:17:32.229Z,99550.94
2022-10-11T14:20:12.593Z,99555.72
2022-10-11T14:22:39.331Z,99548.78
2022-10-11T14:25:06.173Z,99518.03
2022-10-11T14:27:32.854Z,99553.78
2022-10-11T14:30:24.085Z,99463.28
2022-10-11T14:32:49.088Z,99557.56
2022-10-11T14:35:19.163Z,99551.38
2022-10-11T14:37:45.976Z,99509.44
2022-10-11T14:40:16.764Z,99520.28
2022-10-11T14:42:43.511Z,99433.81
2022-10-11T14:45:10.296Z,99565.16
2022-10-11T14:47:42.617Z,99557.31
2022-10-11T14:50:31.445Z,99616.50
2022-10-11T14:52:58.201Z,99576.63
2022-10-11T14:55:25.021Z,99468.09
2022-10-11T14:57:51.731Z,99571.19
2022-10-11T15:00:22.493Z,99562.63
2022-10-11T15:02:50.746Z,99377.06
2022-10-11T15:05:17.286Z,99501.63
2022-10-11T15:07:43.877Z,99500.84
2022-10-11T15:10:25.581Z,99614.91
2022-10-11T15:13:10.619Z,99579.31
2022-10-11T15:15:40.951Z,99578.47
2022-10-11T15:18:12.214Z,99478.16
2022-10-11T15:20:42.604Z,99579.25
2022-10-11T15:23:10.281Z,99461.69
2022-10-11T15:25:38.322Z,99587.06
2022-10-11T15:28:06.719Z,99580.59
2022-10-11T15:30:41.088Z,99568.81
2022-10-11T15:33:08.254Z,99622.88
2022-10-11T15:35:34.798Z,99552.34
2022-10-11T15:38:01.398Z,99567.47
2022-10-11T15:40:33.610Z,99596.34
2022-10-11T15:43:01.013Z,99519.09
2022-10-11T15:45:28.977Z,99599.59
2022-10-11T15:47:55.716Z,99536.59
2022-10-11T15:50:37.466Z,99600.19
2022-10-11T15:53:17.727Z,99575.75
2022-10-11T15:55:50.170Z,99658.16
2022-10-11T15:58:21.735Z,99558.81
2022-10-11T16:00:56.460Z,99624.31
2022-10-11T16:03:26.165Z,99292.88
2022-10-11T16:06:04.818Z,99638.16
2022-10-11T16:08:33.029Z,99637.75
2022-10-11T16:10:59.675Z,99561.75
2022-10-11T16:13:26.220Z,99638.59
2022-10-11T16:15:53.467Z,99600.06
2022-10-11T16:18:21.119Z,99603.81
2022-10-11T16:20:51.066Z,99588.72
2022-10-11T16:23:19.904Z,99646.53
2022-10-11T16:25:56.087Z,99637.34
2022-10-11T16:28:23.289Z,99641.72
2022-10-11T16:30:50.088Z,99643.81
2022-10-11T16:33:16.950Z,99649.84
2022-10-11T16:35:43.700Z,99644.75
2022-10-11T16:38:13.347Z,99665.66
2022-10-11T16:40:42.647Z,99641.84
2022-10-11T16:43:09.631Z,99652.47
2022-10-11T16:45:36.797Z,99561.53
2022-10-11T16:48:04.449Z,99648.19
2022-10-11T16:50:33.416Z,99652.66
2022-10-11T16:53:03.551Z,99611.72
2022-10-11T16:55:30.096Z,99543.59
2022-10-11T16:57:56.624Z,99623.28
2022-10-11T17:00:23.276Z,99656.50
2022-10-11T17:02:49.924Z,99626.91
2022-10-11T17:05:17.013Z,99660.16
2022-10-11T17:07:43.603Z,99629.59
2022-10-11T17:10:10.275Z,99646.63
2022-10-11T17:12:37.278Z,99502.00
2022-10-11T17:15:05.542Z,99704.41
2022-10-11T17:17:32.314Z,99609.75
2022-10-11T17:19:59.008Z,99652.88
2022-10-11T17:22:25.914Z,99591.28
2022-10-11T17:24:52.484Z,99650.13
2022-10-11T17:27:19.035Z,99679.78
2022-10-11T17:29:45.900Z,99667.09
2022-10-11T17:32:12.572Z,99630.63
2022-10-11T17:34:39.216Z,99584.75
2022-10-11T17:37:06.211Z,99689.53
2022-10-11T17:39:32.982Z,99481.34
2022-10-11T17:42:04.959Z,99630.53
2022-10-11T17:44:33.144Z,99560.72
2022-10-11T17:47:00.823Z,99643.47
2022-10-11T17:49:27.434Z,99667.00
2022-10-11T17:51:56.532Z,99651.31
2022-10-11T17:54:24.303Z,99689.16
2022-10-11T17:56:50.989Z,99622.06
2022-10-11T17:59:21.226Z,99691.56
2022-10-11T18:01:50.168Z,99690.38
2022-10-11T18:04:19.252Z,99665.56
2022-10-11T18:06:46.831Z,99599.97
2022-10-11T18:09:15.654Z,99694.38
2022-10-11T18:11:44.042Z,99705.06
2022-10-11T18:14:12.328Z,99591.06
2022-10-11T18:16:39.818Z,99684.38
2022-10-11T18:19:08.785Z,99690.13
2022-10-11T18:21:37.576Z,99691.16
2022-10-11T18:24:07.853Z,99691.84
2022-10-11T18:26:34.337Z,99693.63
2022-10-11T18:29:00.883Z,99701.59
2022-10-11T18:31:31.804Z,99612.47
2022-10-11T18:33:58.399Z,99702.06
2022-10-11T18:36:27.322Z,99698.00
2022-10-11T18:39:00.137Z,99700.84
2022-10-11T18:41:32.136Z,99697.69
2022-10-11T18:44:01.842Z,99726.94
2022-10-11T18:46:29.317Z,99699.00
2022-10-11T18:48:57.409Z,99636.22
2022-10-11T18:51:29.364Z,99590.63
2022-10-11T18:53:58.620Z,99683.34
2022-10-11T18:56:27.109Z,99648.38
2022-10-11T18:58:55.576Z,99709.66
2022-10-11T19:01:28.651Z,99714.25
2022-10-11T19:03:57.414Z,99766.47
2022-10-11T19:06:30.248Z,99719.16
2022-10-11T19:09:14.955Z,99552.00
2022-10-11T19:11:41.797Z,99516.81
2022-10-11T19:14:11.416Z,99769.59
2022-10-11T19:16:43.713Z,99693.53
2022-10-11T19:19:11.467Z,99718.75
2022-10-11T19:21:38.981Z,99412.25
2022-10-11T19:24:05.849Z,99590.56
2022-10-11T19:26:35.653Z,99573.69
2022-10-11T19:29:11.379Z,99724.31
2022-10-11T19:31:42.599Z,99682.38
2022-10-11T19:34:10.302Z,99713.56
2022-10-11T19:36:37.137Z,99718.38
2022-10-11T19:39:05.319Z,99698.66
2022-10-11T19:41:32.456Z,99670.66
2022-10-11T19:43:59.178Z,99728.94
2022-10-11T19:46:49.804Z,99513.13
2022-10-11T19:49:15.814Z,99598.31
2022-10-11T19:51:42.589Z,99637.06
2022-10-11T19:54:12.526Z,99762.28
2022-10-11T19:56:39.463Z,99718.06
2022-10-11T19:59:06.491Z,99717.22
2022-10-11T20:01:35.235Z,99715.38
2022-10-11T20:04:05.064Z,99366.81
2022-10-11T20:06:38.042Z,99686.53
2022-10-11T20:09:28.374Z,99638.38
2022-10-11T20:11:55.490Z,99682.88
2022-10-11T20:14:25.433Z,99653.78
2022-10-11T20:16:52.199Z,99530.28
2022-10-11T20:19:19.357Z,99557.75
2022-10-11T20:21:46.020Z,99605.50
2022-10-11T20:24:15.945Z,99717.22
2022-10-11T20:26:42.909Z,99705.88
2022-10-11T20:29:09.657Z,99731.47
2022-10-11T20:31:41.941Z,99578.50
2022-10-11T20:34:10.329Z,99687.44
2022-10-11T20:36:37.316Z,99721.59
2022-10-11T20:39:05.264Z,99694.84
2022-10-11T20:41:36.859Z,99804.63
2022-10-11T20:44:04.876Z,99467.09
2022-10-11T20:46:34.598Z,99720.91
2022-10-11T20:49:04.008Z,99727.97
2022-10-11T20:51:33.995Z,99724.63
2022-10-11T20:54:02.271Z,99688.41
2022-10-11T20:56:29.801Z,99706.38
2022-10-11T20:58:58.205Z,99739.41
2022-10-11T21:01:28.548Z,99683.16
2022-10-11T21:03:57.173Z,99734.97
2022-10-11T21:06:23.673Z,99737.56
2022-10-11T21:08:50.186Z,99693.38
2022-10-11T21:11:16.784Z,99630.69
2022-10-11T21:13:43.329Z,99665.63
2022-10-11T21:16:16.009Z,99657.28
2022-10-11T21:18:43.057Z,99656.41
2022-10-11T21:21:13.760Z,99740.41
2022-10-11T21:23:41.077Z,99660.38
2022-10-11T21:26:11.282Z,99774.53
2022-10-11T21:28:38.358Z,99744.78
2022-10-11T21:31:14.023Z,99744.13
2022-10-11T21:33:42.197Z,99744.31
2022-10-11T21:36:14.832Z,99723.78
2022-10-11T21:38:41.753Z,99752.38
2022-10-11T21:41:11.440Z,99390.63
2022-10-11T21:43:38.444Z,99748.78
2022-10-11T21:46:41.600Z,99840.91
2022-10-11T21:49:12.336Z,99745.69
2022-10-11T21:51:38.863Z,99759.50
2022-10-11T21:54:05.734Z,99754.16
2022-10-11T21:56:32.417Z,99724.31
2022-10-11T21:58:59.058Z,99694.31
2022-10-11T22:01:25.664Z,99635.97
2022-10-11T22:03:55.091Z,99675.31
2022-10-11T22:06:21.988Z,99727.09
2022-10-11T22:08:49.914Z,99760.50
2022-10-11T22:11:17.138Z,99766.97
2022-10-11T22:13:43.779Z,99464.59
2022-10-11T22:16:12.936Z,99763.97
2022-10-11T22:18:40.149Z,99651.22
2022-10-11T22:21:17.319Z,99428.28
2022-10-11T22:23:46.658Z,99124.78
2022-10-11T22:26:17.615Z,99586.19
2022-10-11T22:28:46.473Z,99697.81
2022-10-11T22:31:14.293Z,99743.13
2022-10-11T22:33:42.034Z,99768.22
2022-10-11T22:36:10.366Z,99767.97
2022-10-11T22:38:38.607Z,99781.28
2022-10-11T22:41:05.586Z,99725.63
2022-10-11T22:43:32.709Z,99682.03
2022-10-11T22:45:59.926Z,99772.22
2022-10-11T22:48:26.575Z,99754.78
2022-10-11T22:50:53.317Z,99690.31
2022-10-11T22:53:20.052Z,99779.72
2022-10-11T22:55:47.178Z,99638.44
2022-10-11T22:58:13.966Z,99632.75
2022-10-11T23:00:40.588Z,99780.03
2022-10-11T23:03:07.355Z,99799.06
2022-10-11T23:05:34.632Z,99713.63
2022-10-11T23:08:01.340Z,99781.03
2022-10-11T23:10:27.857Z,99586.53
2022-10-11T23:12:54.392Z,99736.94
2022-10-11T23:15:20.940Z,99599.00
2022-10-11T23:17:47.529Z,99727.56
2022-10-11T23:20:14.104Z,99762.59
2022-10-11T23:22:40.609Z,99711.19
2022-10-11T23:25:07.888Z,99811.25
2022-10-11T23:27:34.555Z,99786.34
2022-10-11T23:30:01.509Z,99785.50
2022-10-11T23:32:28.022Z,99790.59
2022-10-11T23:34:54.520Z,99701.63
2022-10-11T23:37:21.037Z,99678.09
2022-10-11T23:39:47.549Z,99794.25
2022-10-11T23:42:14.064Z,99668.28
2022-10-11T23:44:40.581Z,99711.34
2022-10-11T23:47:07.109Z,99550.56
2022-10-11T23:49:33.685Z,99770.56
2022-10-11T23:52:00.192Z,99757.66
2022-10-11T23:54:26.831Z,99606.31
2022-10-11T23:56:53.365Z,99677.13
2022-10-11T23:59:19.858Z,99783.19
